Time;durP1;ratioP1;P1;durP2;ratioP2;P2;SDS_P1;SDS_P2;PMS_P1;PMS_P2;Temp;Humidity;BMP_temperature;BMP_pressure;BME280_temperature;BME280_humidity;BME280_pressure;Samples;Min_cycle;Max_cycle;Signal;HPM_P1;HPM_P2
2021/10/01 00:00:14;;;;;;;9.70;3.90;;;11.50;53.30;;;;;;4971817;28;20480;-75
2021/10/01 00:02:41;;;;;;;14.85;4.00;;;11.40;54.30;;;;;;4971852;28;20399;-75
2021/10/01 00:05:07;;;;;;;6.43;3.30;;;11.50;53.90;;;;;;4972025;28;20714;-75
2021/10/01 00:07:33;;;;;;;12.93;4.32;;;11.50;54.50;;;;;;4972339;28;20396;-74
2021/10/01 00:09:59;;;;;;;6.25;4.05;;;11.40;54.40;;;;;;4971392;28;20419;-75
2021/10/01 00:12:25;;;;;;;9.40;4.43;;;11.50;53.60;;;;;;4971407;28;20400;-75
2021/10/01 00:14:50;;;;;;;10.70;4.10;;;11.40;53.00;;;;;;4971791;28;20971;-76
2021/10/01 00:17:17;;;;;;;9.48;4.07;;;11.40;54.20;;;;;;4972629;28;20419;-76
2021/10/01 00:19:43;;;;;;;10.23;3.40;;;11.30;55.10;;;;;;4972233;28;20753;-77
2021/10/01 00:22:08;;;;;;;9.60;4.25;;;11.30;54.30;;;;;;4972685;28;20470;-76
2021/10/01 00:24:34;;;;;;;10.75;3.80;;;11.20;54.50;;;;;;4972160;28;20388;-76
2021/10/01 00:27:01;;;;;;;15.10;4.10;;;11.20;55.30;;;;;;4971435;28;20806;-75
2021/10/01 00:29:26;;;;;;;10.90;4.30;;;11.10;56.20;;;;;;4971531;28;20399;-76
2021/10/01 00:31:52;;;;;;;7.17;3.80;;;11.10;56.30;;;;;;4971651;28;20471;-76
2021/10/01 00:34:18;;;;;;;10.40;4.20;;;11.00;56.80;;;;;;4974304;28;20487;-75
2021/10/01 00:36:44;;;;;;;9.55;3.40;;;10.90;57.60;;;;;;4985044;28;20392;-75
2021/10/01 00:39:09;;;;;;;9.38;3.78;;;10.90;56.70;;;;;;4979330;28;20476;-76
2021/10/01 00:41:37;;;;;;;6.20;3.40;;;10.90;57.10;;;;;;4972510;28;20403;-75
2021/10/01 00:44:04;;;;;;;13.80;3.73;;;10.90;57.60;;;;;;4972519;28;20471;-76
2021/10/01 00:46:29;;;;;;;10.27;4.15;;;10.90;57.30;;;;;;4972264;28;20404;-76
2021/10/01 00:48:55;;;;;;;18.58;4.20;;;10.90;57.50;;;;;;4971850;28;20499;-76
2021/10/01 00:51:24;;;;;;;10.20;4.40;;;10.90;58.70;;;;;;4971377;28;20404;-76
2021/10/01 00:53:51;;;;;;;9.10;4.00;;;10.90;58.60;;;;;;4971476;28;20901;-76
2021/10/01 00:56:17;;;;;;;7.88;3.70;;;10.90;58.70;;;;;;4970768;28;20423;-75
2021/10/01 00:58:43;;;;;;;6.17;3.40;;;10.90;57.60;;;;;;4971398;28;20392;-75
2021/10/01 01:01:11;;;;;;;10.80;4.40;;;10.90;56.30;;;;;;4971753;28;20391;-75
2021/10/01 01:03:44;;;;;;;10.57;3.85;;;10.80;57.80;;;;;;4971418;28;20384;-75
2021/10/01 01:06:33;;;;;;;6.07;3.45;;;10.80;57.40;;;;;;4971531;28;20470;-74
2021/10/01 01:09:28;;;;;;;10.00;3.38;;;10.80;57.00;;;;;;4970633;28;20396;-74
2021/10/01 01:12:02;;;;;;;7.63;3.50;;;10.80;56.80;;;;;;4965459;28;20428;-75
2021/10/01 01:14:43;;;;;;;8.13;3.55;;;10.70;58.20;;;;;;4971438;28;20407;-74
2021/10/01 01:17:24;;;;;;;9.75;3.00;;;10.70;58.50;;;;;;4971214;28;20526;-76
2021/10/01 01:20:11;;;;;;;11.13;3.75;;;10.70;58.30;;;;;;4971158;28;20380;-76
2021/10/01 01:23:13;;;;;;;7.53;3.20;;;10.70;59.20;;;;;;4970599;28;20388;-74
2021/10/01 01:25:52;;;;;;;8.75;2.90;;;10.60;58.20;;;;;;4971301;28;20877;-74
2021/10/01 01:28:33;;;;;;;8.32;3.03;;;10.60;57.60;;;;;;4971261;28;20396;-76
2021/10/01 01:31:22;;;;;;;7.13;3.53;;;10.60;57.70;;;;;;4971275;28;20403;-75
2021/10/01 01:33:49;;;;;;;14.73;3.50;;;10.60;57.00;;;;;;4968978;28;20416;-74
2021/10/01 01:36:15;;;;;;;4.50;2.80;;;10.60;57.10;;;;;;4971278;28;20829;-74
2021/10/01 01:38:47;;;;;;;8.43;3.40;;;10.60;57.50;;;;;;4970588;28;20412;-75
2021/10/01 01:41:14;;;;;;;11.27;3.80;;;10.60;57.20;;;;;;4970906;28;20392;-75
2021/10/01 01:43:41;;;;;;;12.60;3.67;;;10.60;57.70;;;;;;4971084;28;20878;-76
2021/10/01 01:46:08;;;;;;;7.13;3.05;;;10.70;58.70;;;;;;4971102;28;20977;-75
2021/10/01 01:48:34;;;;;;;10.05;3.20;;;10.60;56.80;;;;;;4973831;28;20433;-76
2021/10/01 01:51:04;;;;;;;10.00;3.50;;;10.60;57.70;;;;;;4974712;28;20396;-76
2021/10/01 01:53:31;;;;;;;13.15;3.80;;;10.60;58.00;;;;;;4971886;28;20504;-75
2021/10/01 01:55:58;;;;;;;7.38;3.35;;;10.60;57.60;;;;;;4963874;28;20394;-77
2021/10/01 01:58:24;;;;;;;5.68;2.70;;;10.60;57.60;;;;;;4993753;28;20387;-74
2021/10/01 02:00:50;;;;;;;5.90;2.53;;;10.60;56.30;;;;;;4994595;28;20405;-75
2021/10/01 02:03:18;;;;;;;5.90;3.22;;;10.60;55.80;;;;;;4993731;28;20382;-75
2021/10/01 02:05:47;;;;;;;8.50;2.90;;;10.60;56.10;;;;;;4983679;28;20431;-75
2021/10/01 02:08:14;;;;;;;4.53;3.17;;;10.60;56.80;;;;;;4974563;28;20870;-75
2021/10/01 02:10:40;;;;;;;15.50;3.40;;;10.50;57.40;;;;;;4973517;28;20396;-75
2021/10/01 02:13:08;;;;;;;8.27;3.17;;;10.40;57.50;;;;;;4972474;28;20933;-75
2021/10/01 02:15:36;;;;;;;8.50;2.88;;;10.50;58.00;;;;;;4969226;28;20478;-75
2021/10/01 02:18:03;;;;;;;10.80;3.67;;;10.50;57.10;;;;;;4968091;28;20874;-75
2021/10/01 02:20:32;;;;;;;10.32;3.10;;;10.50;58.00;;;;;;4974985;28;20399;-75
2021/10/01 02:22:58;;;;;;;6.22;2.92;;;10.50;57.20;;;;;;4974973;28;20395;-75
2021/10/01 02:28:14;;;;;;;6.80;2.80;;;10.40;58.20;;;;;;4975673;28;20383;-73
2021/10/01 02:30:41;;;;;;;6.50;2.90;;;10.40;58.00;;;;;;4987763;28;20593;-74
2021/10/01 02:33:19;;;;;;;9.48;3.08;;;10.30;57.90;;;;;;4989880;28;20723;-75
2021/10/01 02:35:45;;;;;;;8.02;2.80;;;10.30;57.80;;;;;;4979677;28;20415;-74
2021/10/01 02:38:11;;;;;;;9.77;3.30;;;10.30;58.70;;;;;;4975354;28;20396;-74
2021/10/01 02:40:36;;;;;;;6.60;3.00;;;10.30;57.40;;;;;;4975313;28;20406;-74
2021/10/01 02:43:02;;;;;;;9.90;3.00;;;10.30;59.30;;;;;;4974573;28;20380;-74
2021/10/01 02:45:27;;;;;;;4.73;2.80;;;10.20;57.90;;;;;;4976328;28;20403;-74
2021/10/01 02:47:53;;;;;;;11.63;3.60;;;10.30;56.70;;;;;;4985851;28;20403;-73
2021/10/01 02:50:21;;;;;;;9.23;3.25;;;10.30;56.10;;;;;;4991311;28;20396;-74
2021/10/01 02:52:56;;;;;;;7.00;3.00;;;10.30;56.50;;;;;;4972058;28;20410;-74
2021/10/01 02:55:29;;;;;;;9.65;3.10;;;10.20;56.70;;;;;;4970072;28;20474;-75
2021/10/01 02:57:58;;;;;;;7.25;3.65;;;10.30;56.40;;;;;;4958456;28;20399;-75
2021/10/01 03:00:23;;;;;;;7.57;3.30;;;10.20;57.50;;;;;;4973823;28;20439;-75
2021/10/01 03:02:52;;;;;;;9.55;3.35;;;10.20;57.40;;;;;;4973705;28;20404;-76
2021/10/01 03:05:20;;;;;;;5.68;3.10;;;10.20;56.50;;;;;;4973605;28;20395;-75
2021/10/01 03:07:46;;;;;;;9.35;3.65;;;10.20;56.80;;;;;;4973695;28;20941;-75
2021/10/01 03:10:12;;;;;;;8.50;2.95;;;10.20;57.40;;;;;;4973488;28;20419;-75
2021/10/01 03:12:39;;;;;;;10.75;3.33;;;10.30;56.90;;;;;;4973518;28;20438;-77
2021/10/01 03:15:06;;;;;;;11.57;3.10;;;10.30;56.70;;;;;;4973504;28;20507;-76
2021/10/01 03:17:33;;;;;;;8.57;3.20;;;10.30;55.10;;;;;;4972267;28;20388;-76
2021/10/01 03:20:00;;;;;;;6.88;3.25;;;10.30;54.70;;;;;;4973677;28;20462;-76
2021/10/01 03:22:31;;;;;;;9.02;3.50;;;10.30;56.20;;;;;;4972440;28;20492;-76
2021/10/01 03:24:59;;;;;;;5.88;2.80;;;10.30;55.50;;;;;;4972663;28;20396;-76
2021/10/01 03:27:27;;;;;;;4.85;2.70;;;10.40;54.50;;;;;;4973670;28;20388;-75
2021/10/01 03:29:57;;;;;;;7.72;3.00;;;10.50;53.50;;;;;;4975180;28;20399;-75
2021/10/01 03:32:22;;;;;;;6.10;2.72;;;10.50;53.00;;;;;;4974946;28;20395;-77
2021/10/01 03:34:48;;;;;;;6.10;2.70;;;10.60;52.70;;;;;;4972591;28;20419;-77
2021/10/01 03:37:13;;;;;;;10.77;2.80;;;10.60;52.00;;;;;;4963020;28;20416;-74
2021/10/01 03:39:39;;;;;;;8.77;2.90;;;10.60;51.40;;;;;;4972923;28;20395;-75
2021/10/01 03:42:07;;;;;;;9.07;3.03;;;10.70;51.70;;;;;;4972684;28;20388;-75
2021/10/01 03:44:32;;;;;;;11.98;3.60;;;10.70;50.70;;;;;;4973018;28;20392;-75
2021/10/01 03:46:58;;;;;;;8.63;2.90;;;10.70;51.70;;;;;;4972656;28;20824;-75
2021/10/01 03:49:23;;;;;;;7.22;3.00;;;10.80;50.60;;;;;;4972208;28;20786;-76
2021/10/01 03:51:49;;;;;;;3.92;2.63;;;10.80;49.40;;;;;;4964610;28;20961;-76
2021/10/01 03:54:14;;;;;;;7.55;3.20;;;10.80;48.80;;;;;;4973030;28;20416;-76
2021/10/01 03:56:40;;;;;;;6.30;2.63;;;10.80;49.00;;;;;;4972997;28;20761;-76
2021/10/01 03:59:06;;;;;;;7.68;2.80;;;10.70;49.40;;;;;;4972385;28;20471;-76
2021/10/01 04:01:31;;;;;;;5.00;2.40;;;10.70;50.40;;;;;;4971203;28;20400;-77
2021/10/01 04:03:57;;;;;;;8.83;3.20;;;10.80;48.30;;;;;;4971613;28;20407;-76
2021/10/01 04:06:22;;;;;;;8.70;3.00;;;10.80;49.60;;;;;;4971402;28;20408;-76
2021/10/01 04:08:48;;;;;;;8.53;2.70;;;10.80;49.00;;;;;;4972149;28;20384;-76
2021/10/01 04:11:14;;;;;;;8.80;2.90;;;10.80;47.90;;;;;;4971776;28;20407;-76
2021/10/01 04:13:40;;;;;;;4.50;2.30;;;10.90;47.90;;;;;;4972577;28;20388;-77
2021/10/01 04:16:05;;;;;;;15.35;3.70;;;10.90;47.50;;;;;;4972465;28;20463;-76
2021/10/01 04:18:31;;;;;;;5.25;3.20;;;10.90;48.40;;;;;;4971129;28;20986;-76
2021/10/01 04:20:56;;;;;;;9.35;2.85;;;10.80;48.20;;;;;;4974966;28;20749;-75
2021/10/01 04:23:22;;;;;;;6.90;2.97;;;10.80;48.20;;;;;;4973805;28;20779;-77
2021/10/01 04:25:48;;;;;;;8.82;2.90;;;10.90;48.50;;;;;;4973938;28;20514;-75
2021/10/01 04:28:14;;;;;;;7.10;2.40;;;10.90;48.60;;;;;;4973516;28;20392;-75
2021/10/01 04:30:45;;;;;;;9.70;3.20;;;10.90;46.30;;;;;;4973689;28;20812;-75
2021/10/01 04:33:20;;;;;;;11.77;3.33;;;10.90;47.00;;;;;;4974244;28;20398;-75
2021/10/01 04:35:46;;;;;;;7.20;2.80;;;10.90;46.90;;;;;;4975233;28;20879;-76
2021/10/01 04:38:11;;;;;;;5.90;2.80;;;10.80;46.60;;;;;;4977322;28;20396;-77
2021/10/01 04:40:37;;;;;;;7.40;2.90;;;10.80;47.20;;;;;;4975267;28;20414;-77
2021/10/01 04:43:02;;;;;;;21.87;3.37;;;10.80;47.60;;;;;;4974589;28;20451;-74
2021/10/01 04:45:28;;;;;;;4.80;2.60;;;10.90;47.90;;;;;;4975429;28;20482;-76
2021/10/01 04:47:54;;;;;;;7.03;2.70;;;10.80;46.30;;;;;;4974728;28;20399;-76
2021/10/01 04:50:19;;;;;;;5.63;2.80;;;10.80;47.40;;;;;;4975485;28;20399;-77
2021/10/01 04:52:45;;;;;;;9.30;2.60;;;10.70;47.40;;;;;;4972645;28;20504;-76
2021/10/01 04:55:11;;;;;;;8.47;2.90;;;10.70;45.90;;;;;;4972161;28;20930;-76
2021/10/01 04:57:36;;;;;;;9.33;3.70;;;10.80;45.30;;;;;;4990584;28;20394;-76
2021/10/01 05:00:03;;;;;;;6.30;2.63;;;10.70;46.60;;;;;;4977792;28;20747;-75
2021/10/01 05:02:29;;;;;;;6.95;2.60;;;10.70;46.50;;;;;;4973932;28;20384;-76
2021/10/01 05:04:55;;;;;;;10.95;3.00;;;10.70;46.40;;;;;;4972960;28;20399;-76
2021/10/01 05:07:21;;;;;;;9.75;3.10;;;10.70;46.50;;;;;;4972330;28;20494;-76
2021/10/01 05:09:47;;;;;;;9.25;3.00;;;10.70;47.00;;;;;;4972512;28;20444;-75
2021/10/01 05:12:14;;;;;;;6.20;2.75;;;10.70;45.90;;;;;;4972120;28;20479;-75
2021/10/01 05:14:39;;;;;;;6.13;2.67;;;10.60;46.90;;;;;;4972618;28;20477;-76
2021/10/01 05:17:05;;;;;;;8.03;2.80;;;10.70;46.30;;;;;;4971994;28;20427;-76
2021/10/01 05:19:31;;;;;;;18.30;3.60;;;10.70;45.30;;;;;;4972157;28;20392;-75
2021/10/01 05:21:56;;;;;;;6.37;2.50;;;10.70;45.40;;;;;;4971540;28;20743;-76
2021/10/01 05:24:22;;;;;;;6.80;3.13;;;10.70;45.30;;;;;;4975724;28;20499;-76
2021/10/01 05:26:47;;;;;;;12.00;3.10;;;10.70;46.30;;;;;;4975588;28;20889;-76
2021/10/01 05:29:13;;;;;;;6.27;2.33;;;10.70;46.50;;;;;;4976223;28;20703;-76
2021/10/01 05:31:38;;;;;;;9.50;3.20;;;10.70;45.00;;;;;;4976736;28;20396;-76
2021/10/01 05:34:04;;;;;;;6.53;3.07;;;10.70;44.30;;;;;;4976541;28;20717;-76
2021/10/01 05:36:32;;;;;;;7.97;2.80;;;10.60;45.10;;;;;;4976578;28;20480;-76
2021/10/01 05:38:58;;;;;;;7.47;2.40;;;10.60;45.10;;;;;;4977083;28;20392;-76
2021/10/01 05:41:24;;;;;;;9.65;2.90;;;10.60;44.70;;;;;;4977457;28;20411;-76
2021/10/01 05:43:49;;;;;;;8.10;2.90;;;10.60;45.50;;;;;;4977488;28;20396;-75
2021/10/01 05:46:17;;;;;;;6.05;2.92;;;10.60;46.90;;;;;;4977626;28;20380;-75
2021/10/01 05:48:45;;;;;;;6.93;3.00;;;10.70;45.00;;;;;;4977812;28;20885;-76
2021/10/01 05:51:13;;;;;;;8.32;3.40;;;10.70;46.80;;;;;;4977464;28;20433;-77
2021/10/01 05:56:08;;;;;;;6.30;2.73;;;10.90;42.70;;;;;;4976941;28;20428;-75
2021/10/01 05:58:40;;;;;;;5.73;2.70;;;10.90;42.70;;;;;;4976511;28;20412;-73
2021/10/01 06:01:07;;;;;;;8.25;2.85;;;10.90;43.60;;;;;;4976666;28;20391;-73
2021/10/01 06:03:32;;;;;;;6.22;3.13;;;10.90;43.10;;;;;;4970870;28;20424;-71
2021/10/01 06:05:58;;;;;;;8.90;3.80;;;11.00;43.70;;;;;;4975019;28;20462;-73
2021/10/01 06:08:24;;;;;;;10.00;3.30;;;11.10;43.90;;;;;;4981944;28;20395;-74
2021/10/01 06:10:50;;;;;;;5.73;2.83;;;11.10;42.10;;;;;;4980545;28;20414;-74
2021/10/01 06:13:16;;;;;;;10.30;2.60;;;11.20;41.70;;;;;;4977071;28;20414;-75
2021/10/01 06:15:43;;;;;;;6.45;2.50;;;11.20;41.30;;;;;;4975830;28;20412;-74
2021/10/01 06:18:09;;;;;;;8.60;2.80;;;11.30;40.10;;;;;;4969883;28;20941;-75
2021/10/01 06:20:36;;;;;;;12.50;3.20;;;11.40;39.20;;;;;;4976484;28;20442;-75
2021/10/01 06:23:02;;;;;;;11.07;3.15;;;11.40;39.90;;;;;;4971562;28;20972;-75
2021/10/01 06:25:27;;;;;;;8.07;3.27;;;11.50;39.50;;;;;;4971767;28;20444;-72
2021/10/01 06:27:53;;;;;;;10.27;3.73;;;11.50;39.50;;;;;;4973420;28;20408;-75
2021/10/01 06:30:19;;;;;;;6.93;3.00;;;11.60;38.40;;;;;;4969096;28;20490;-75
2021/10/01 06:32:45;;;;;;;10.48;4.20;;;11.70;37.80;;;;;;4973305;28;20396;-74
2021/10/01 06:35:11;;;;;;;6.40;2.70;;;11.70;37.40;;;;;;4973838;28;20448;-74
2021/10/01 06:37:37;;;;;;;8.90;2.90;;;11.90;36.90;;;;;;4973167;28;20399;-75
2021/10/01 06:40:04;;;;;;;14.23;3.00;;;12.00;37.00;;;;;;4970387;28;20888;-75
2021/10/01 06:42:31;;;;;;;8.23;3.03;;;12.10;36.70;;;;;;4966888;28;20408;-75
2021/10/01 06:45:00;;;;;;;9.60;2.47;;;12.20;35.50;;;;;;4965723;28;20427;-73
2021/10/01 06:47:37;;;;;;;8.75;2.80;;;12.20;35.30;;;;;;4963546;28;20410;-74
2021/10/01 06:53:16;;;;;;;9.90;2.97;;;12.40;34.70;;;;;;4953809;28;20448;-74
2021/10/01 08:20:01;;;;;;;11.45;2.80;;;15.30;25.50;;;;;;4972668;28;20436;-74
2021/10/01 08:22:27;;;;;;;6.78;2.80;;;15.50;26.00;;;;;;4978508;28;20439;-72
2021/10/01 08:24:54;;;;;;;5.13;2.20;;;15.70;24.70;;;;;;4977534;28;20407;-76
2021/10/01 08:27:23;;;;;;;5.32;2.08;;;15.90;24.70;;;;;;4973073;28;20680;-75
2021/10/01 08:29:48;;;;;;;8.80;2.30;;;16.00;24.20;;;;;;4972457;28;20395;-73
2021/10/01 08:32:14;;;;;;;5.93;3.20;;;16.10;24.40;;;;;;4970898;28;20400;-74
2021/10/01 08:34:42;;;;;;;7.03;3.20;;;16.10;24.30;;;;;;4968298;28;20781;-74
2021/10/01 08:37:09;;;;;;;6.78;2.40;;;16.20;24.10;;;;;;4967513;28;20920;-75
2021/10/01 08:39:36;;;;;;;7.13;2.30;;;16.30;23.70;;;;;;4972479;28;20870;-73
2021/10/01 08:42:02;;;;;;;5.25;2.10;;;16.40;22.70;;;;;;4971759;28;20400;-74
2021/10/01 08:44:30;;;;;;;6.38;2.28;;;16.40;23.60;;;;;;4971292;28;20899;-73
2021/10/01 08:46:55;;;;;;;8.70;2.20;;;16.40;22.90;;;;;;4965985;28;20408;-73
2021/10/01 08:49:23;;;;;;;4.78;2.30;;;16.40;22.60;;;;;;4972268;28;20482;-74
2021/10/01 08:51:51;;;;;;;5.82;2.10;;;16.60;23.00;;;;;;4972436;28;20392;-75
2021/10/01 08:54:18;;;;;;;10.60;2.90;;;16.70;22.30;;;;;;4971795;28;20408;-74
2021/10/01 08:56:44;;;;;;;9.25;3.60;;;16.80;21.50;;;;;;4967170;28;21017;-74
2021/10/01 08:59:10;;;;;;;13.23;3.40;;;16.90;21.10;;;;;;4974346;28;20448;-75
2021/10/01 09:01:35;;;;;;;8.83;2.60;;;17.10;22.00;;;;;;4976048;28;21033;-74
2021/10/01 09:04:01;;;;;;;8.80;2.60;;;17.10;21.30;;;;;;4976033;28;20405;-76
2021/10/01 09:06:26;;;;;;;9.00;2.70;;;17.20;20.60;;;;;;4968773;28;20893;-76
2021/10/01 09:08:58;;;;;;;5.90;3.10;;;17.20;20.50;;;;;;4973926;28;20893;-74
2021/10/01 09:11:30;;;;;;;8.18;2.00;;;17.00;20.10;;;;;;4974016;28;20955;-74
2021/10/01 09:14:02;;;;;;;8.05;2.35;;;16.90;20.70;;;;;;4975960;28;20396;-74
2021/10/01 09:16:27;;;;;;;7.32;2.10;;;16.80;21.90;;;;;;4972616;28;20760;-74
2021/10/01 09:18:53;;;;;;;7.23;2.13;;;16.80;21.80;;;;;;4968837;28;20514;-73
2021/10/01 09:21:21;;;;;;;7.20;2.33;;;16.90;21.60;;;;;;4974706;28;20884;-73
2021/10/01 09:24:05;;;;;;;9.15;2.05;;;17.00;20.70;;;;;;4960417;28;20388;-74
2021/10/01 09:26:33;;;;;;;9.27;2.80;;;17.00;21.30;;;;;;4974561;28;20404;-74
2021/10/01 09:29:07;;;;;;;13.25;2.30;;;17.00;21.60;;;;;;4973710;28;20407;-73
2021/10/01 09:31:42;;;;;;;6.47;2.40;;;16.90;20.70;;;;;;4975303;28;20407;-76
2021/10/01 09:34:13;;;;;;;4.80;2.10;;;16.80;20.90;;;;;;4976283;28;20412;-73
2021/10/01 09:36:40;;;;;;;5.47;1.90;;;16.80;20.90;;;;;;4974612;28;20399;-73
2021/10/01 09:39:06;;;;;;;8.77;2.47;;;16.80;21.40;;;;;;4974596;28;20400;-73
2021/10/01 09:41:35;;;;;;;8.80;2.63;;;16.70;20.90;;;;;;4974946;28;20400;-73
2021/10/01 09:44:02;;;;;;;8.52;2.90;;;16.70;21.40;;;;;;4963747;28;20416;-74
2021/10/01 09:46:37;;;;;;;5.75;1.88;;;16.70;21.90;;;;;;4959158;28;20488;-74
2021/10/01 09:49:03;;;;;;;6.43;2.33;;;16.80;21.00;;;;;;4975407;28;20388;-74
2021/10/01 09:51:30;;;;;;;8.07;2.20;;;16.70;21.20;;;;;;4975433;28;20980;-75
2021/10/01 09:53:56;;;;;;;5.93;3.10;;;16.80;21.10;;;;;;4975531;28;20517;-75
2021/10/01 09:56:29;;;;;;;11.98;3.38;;;16.90;21.40;;;;;;4976188;28;20455;-75
2021/10/01 09:59:12;;;;;;;7.55;3.10;;;17.00;22.40;;;;;;4975879;28;20428;-74
2021/10/01 10:02:07;;;;;;;9.32;2.80;;;17.10;20.80;;;;;;4966374;28;20402;-75
2021/10/01 10:04:51;;;;;;;12.88;3.00;;;17.10;20.70;;;;;;4969845;28;20404;-74
2021/10/01 10:07:22;;;;;;;10.52;3.10;;;17.20;21.60;;;;;;4971076;28;20424;-75
2021/10/01 10:09:52;;;;;;;18.85;3.03;;;17.30;21.30;;;;;;4969516;28;20427;-74
2021/10/01 10:12:25;;;;;;;6.93;2.35;;;17.50;20.40;;;;;;4961162;28;20497;-75
2021/10/01 10:14:53;;;;;;;4.95;2.25;;;17.60;20.50;;;;;;4972111;28;20426;-74
2021/10/01 10:17:25;;;;;;;3.25;2.08;;;17.60;19.40;;;;;;4972309;28;20410;-74
2021/10/01 10:19:59;;;;;;;6.45;2.50;;;17.80;19.90;;;;;;4967955;28;20401;-74
2021/10/01 10:22:27;;;;;;;6.13;2.80;;;17.90;19.50;;;;;;4967540;28;20487;-74
2021/10/01 10:24:55;;;;;;;7.43;2.40;;;18.00;19.50;;;;;;4970990;28;20475;-75
2021/10/01 10:27:22;;;;;;;9.20;2.30;;;18.10;19.10;;;;;;4974787;28;20400;-74
2021/10/01 10:29:48;;;;;;;8.37;1.97;;;18.20;18.70;;;;;;4969275;28;20408;-72
2021/10/01 10:32:15;;;;;;;9.02;2.20;;;18.00;17.90;;;;;;4972849;28;20439;-75
2021/10/01 10:34:50;;;;;;;8.52;2.60;;;18.00;18.50;;;;;;4976217;28;20415;-74
2021/10/01 10:37:16;;;;;;;7.30;2.88;;;18.00;18.60;;;;;;4974886;28;20419;-74
2021/10/01 10:39:51;;;;;;;4.90;1.88;;;18.10;19.00;;;;;;4973972;28;20497;-74
2021/10/01 10:42:22;;;;;;;7.50;2.10;;;18.10;18.50;;;;;;4976459;28;20762;-74
2021/10/01 10:44:54;;;;;;;5.70;2.20;;;18.20;18.30;;;;;;4975912;28;20423;-75
2021/10/01 10:47:42;;;;;;;6.60;2.00;;;18.30;18.80;;;;;;4973386;28;20423;-75
2021/10/01 10:50:24;;;;;;;3.70;2.20;;;18.50;18.80;;;;;;4975800;28;20404;-75
2021/10/01 10:53:09;;;;;;;8.13;2.45;;;18.70;18.30;;;;;;4972727;28;20573;-76
2021/10/01 10:55:50;;;;;;;5.43;2.30;;;18.90;18.30;;;;;;4981536;28;20496;-75
2021/10/01 10:58:22;;;;;;;5.90;1.95;;;19.00;18.00;;;;;;4963052;28;20404;-76
2021/10/01 11:00:48;;;;;;;9.95;2.00;;;18.80;17.70;;;;;;4970600;28;20404;-74
2021/10/01 11:03:25;;;;;;;6.80;2.00;;;18.60;17.90;;;;;;4973147;28;20727;-76
2021/10/01 11:06:13;;;;;;;4.03;1.90;;;18.40;18.00;;;;;;4972494;28;20493;-75
2021/10/01 11:08:44;;;;;;;6.85;2.10;;;18.30;18.20;;;;;;4968027;28;20416;-75
2021/10/01 11:11:34;;;;;;;8.10;2.40;;;18.20;18.50;;;;;;4963774;28;20424;-75
2021/10/01 11:14:15;;;;;;;6.00;2.00;;;18.20;18.40;;;;;;4954074;28;20717;-75
2021/10/01 11:16:53;;;;;;;5.15;2.97;;;18.20;18.30;;;;;;4962467;28;20922;-77
2021/10/01 11:19:38;;;;;;;8.63;3.10;;;18.20;18.50;;;;;;4962906;28;20408;-77
2021/10/01 11:22:37;;;;;;;8.90;2.40;;;18.40;18.70;;;;;;4974216;28;20919;-74
2021/10/01 11:25:17;;;;;;;8.50;3.20;;;18.40;18.60;;;;;;4965058;28;20420;-76
2021/10/01 11:27:50;;;;;;;9.50;2.97;;;18.60;18.50;;;;;;4971990;28;20400;-76
2021/10/01 11:30:16;;;;;;;6.95;2.22;;;18.70;18.10;;;;;;4969630;28;20420;-76
2021/10/01 11:32:42;;;;;;;9.10;2.33;;;18.70;18.20;;;;;;4972369;28;20478;-76
2021/10/01 11:35:07;;;;;;;11.50;3.63;;;18.80;17.80;;;;;;4971553;28;20438;-76
2021/10/01 11:37:36;;;;;;;8.43;2.60;;;19.00;18.40;;;;;;4971632;28;20483;-77
2021/10/01 11:40:07;;;;;;;37.60;5.95;;;19.10;17.10;;;;;;4962224;28;20459;-75
2021/10/01 11:42:38;;;;;;;10.48;3.00;;;19.20;17.60;;;;;;4972910;28;20484;-75
2021/10/01 11:45:18;;;;;;;2.90;2.03;;;19.30;17.30;;;;;;4971979;28;20414;-75
2021/10/01 11:48:02;;;;;;;5.57;2.15;;;19.40;16.80;;;;;;4972831;28;20396;-74
2021/10/01 11:50:39;;;;;;;9.88;2.20;;;19.30;16.70;;;;;;4969032;28;20704;-74
2021/10/01 11:53:14;;;;;;;7.10;2.15;;;19.30;16.70;;;;;;4963056;28;20447;-75
2021/10/01 11:56:02;;;;;;;4.63;2.20;;;19.30;17.10;;;;;;4974741;28;20408;-74
2021/10/01 11:58:30;;;;;;;6.18;2.22;;;19.40;16.70;;;;;;4966691;28;20848;-74
2021/10/01 12:01:07;;;;;;;8.57;2.42;;;19.50;16.90;;;;;;4966277;28;20527;-74
2021/10/01 12:03:32;;;;;;;7.32;2.20;;;19.40;16.80;;;;;;4968554;28;20416;-74
2021/10/01 12:05:58;;;;;;;10.50;2.30;;;19.30;16.30;;;;;;4965501;28;20405;-74
2021/10/01 12:08:24;;;;;;;6.47;2.00;;;19.20;16.90;;;;;;4969783;28;20510;-74
2021/10/01 12:10:54;;;;;;;10.10;2.80;;;19.20;17.00;;;;;;4971897;28;20479;-75
2021/10/01 12:13:27;;;;;;;4.15;2.47;;;19.20;17.00;;;;;;4971747;28;20404;-75
2021/10/01 12:15:54;;;;;;;7.15;1.70;;;19.40;16.10;;;;;;4960450;28;22024;-75
2021/10/01 12:18:40;;;;;;;4.60;2.10;;;19.50;16.50;;;;;;4976998;28;20831;-74
2021/10/01 12:21:09;;;;;;;8.98;2.22;;;19.70;15.60;;;;;;4957055;28;20408;-75
2021/10/01 12:23:56;;;;;;;4.85;1.90;;;19.80;15.30;;;;;;4978274;28;20904;-75
2021/10/01 12:26:41;;;;;;;9.05;4.15;;;19.90;15.10;;;;;;4970557;28;20420;-75
2021/10/01 12:29:19;;;;;;;10.00;2.40;;;20.00;14.80;;;;;;4970181;28;20474;-74
2021/10/01 12:31:55;;;;;;;3.20;1.40;;;20.00;14.80;;;;;;4974483;28;20866;-76
2021/10/01 12:34:27;;;;;;;6.00;1.98;;;20.00;14.40;;;;;;4974070;28;20534;-76
2021/10/01 12:36:57;;;;;;;5.90;3.20;;;20.00;14.50;;;;;;4966748;28;20468;-75
2021/10/01 12:39:25;;;;;;;6.00;2.65;;;20.00;14.60;;;;;;4971849;28;20419;-76
2021/10/01 12:42:14;;;;;;;7.90;3.50;;;20.10;14.60;;;;;;4978764;28;20461;-78
2021/10/01 12:44:43;;;;;;;5.20;1.77;;;20.20;14.40;;;;;;4971005;28;20937;-77
2021/10/01 12:47:12;;;;;;;4.90;2.20;;;20.30;14.70;;;;;;4968146;28;20427;-77
2021/10/01 12:49:38;;;;;;;7.78;2.15;;;20.60;13.90;;;;;;4972593;28;20408;-78
2021/10/01 12:52:14;;;;;;;4.72;2.58;;;20.60;13.90;;;;;;4970035;28;20430;-77
2021/10/01 12:54:46;;;;;;;6.00;2.10;;;20.70;14.40;;;;;;4964894;28;20444;-76
2021/10/01 12:57:14;;;;;;;8.45;2.50;;;20.70;13.80;;;;;;4982985;28;20431;-77
2021/10/01 13:00:20;;;;;;;5.10;2.28;;;20.80;13.80;;;;;;4979597;28;20459;-74
2021/10/01 13:03:04;;;;;;;5.85;1.90;;;20.90;13.90;;;;;;4970931;28;20407;-74
2021/10/01 13:05:32;;;;;;;8.95;2.10;;;20.90;13.50;;;;;;4952543;28;20412;-74
2021/10/01 13:07:57;;;;;;;9.90;2.42;;;21.10;13.00;;;;;;4955605;28;20408;-77
2021/10/01 13:10:40;;;;;;;3.50;2.10;;;21.20;13.00;;;;;;4971236;28;20507;-74
2021/10/01 13:13:33;;;;;;;4.10;2.38;;;21.20;13.10;;;;;;4971253;28;20612;-75
2021/10/01 13:16:02;;;;;;;4.22;2.00;;;21.20;12.80;;;;;;4971730;28;20414;-75
2021/10/01 13:18:33;;;;;;;7.43;2.07;;;21.10;12.70;;;;;;4951834;28;20404;-75
2021/10/01 13:21:10;;;;;;;6.00;1.90;;;21.10;13.00;;;;;;4968239;28;20392;-75
2021/10/01 13:23:41;;;;;;;7.70;1.90;;;21.10;13.20;;;;;;4970970;28;20447;-76
2021/10/01 13:26:29;;;;;;;8.02;2.10;;;21.10;13.10;;;;;;4963682;28;20483;-75
2021/10/01 13:29:04;;;;;;;6.05;2.45;;;21.10;13.10;;;;;;4970954;28;20390;-75
2021/10/01 13:31:42;;;;;;;3.95;1.70;;;21.30;13.30;;;;;;4971230;28;20467;-74
2021/10/01 13:34:09;;;;;;;4.50;2.30;;;21.20;12.70;;;;;;4973900;28;20691;-75
2021/10/01 13:36:35;;;;;;;4.70;1.80;;;21.30;12.90;;;;;;4971297;28;20491;-76
2021/10/01 13:39:00;;;;;;;3.85;1.95;;;21.20;12.00;;;;;;4971172;28;20476;-75
2021/10/01 13:41:27;;;;;;;5.47;1.92;;;21.10;12.40;;;;;;4970618;28;20400;-75
2021/10/01 13:43:53;;;;;;;4.97;2.20;;;21.00;12.50;;;;;;4973004;28;20474;-73
2021/10/01 13:46:20;;;;;;;4.38;1.90;;;21.00;12.90;;;;;;4974398;28;20487;-74
2021/10/01 13:48:47;;;;;;;6.93;2.70;;;21.20;12.70;;;;;;4973951;28;20396;-74
2021/10/01 13:51:13;;;;;;;4.70;1.90;;;21.40;12.30;;;;;;4974223;28;20377;-75
2021/10/01 13:53:38;;;;;;;4.90;2.33;;;21.60;11.50;;;;;;4974070;28;20490;-75
2021/10/01 13:56:04;;;;;;;3.95;1.60;;;21.80;11.20;;;;;;4979636;28;20504;-73
2021/10/01 13:58:30;;;;;;;3.05;1.85;;;22.00;10.50;;;;;;4992381;28;20399;-74
2021/10/01 14:00:56;;;;;;;5.80;1.60;;;22.20;10.50;;;;;;5016138;23;20454;-77
2021/10/01 14:03:22;;;;;;;7.47;2.10;;;22.10;10.20;;;;;;5007008;28;20441;-77
2021/10/01 14:05:49;;;;;;;6.85;1.58;;;22.10;10.60;;;;;;5003979;28;20394;-78
2021/10/01 14:08:15;;;;;;;3.80;1.77;;;22.00;9.50;;;;;;4998034;28;20406;-78
2021/10/01 14:10:41;;;;;;;6.65;1.77;;;22.20;9.20;;;;;;4992963;28;21044;-80
2021/10/01 14:13:10;;;;;;;4.20;1.50;;;22.20;8.70;;;;;;4975559;28;20380;-75
2021/10/01 14:15:37;;;;;;;8.27;1.90;;;22.20;9.00;;;;;;4974998;28;20427;-75
2021/10/01 14:18:03;;;;;;;2.45;1.60;;;22.20;8.20;;;;;;4973630;28;20400;-75
2021/10/01 14:20:30;;;;;;;2.85;1.88;;;22.20;8.20;;;;;;4974365;28;21072;-76
2021/10/01 14:22:57;;;;;;;3.22;1.42;;;22.30;7.90;;;;;;4971799;28;20769;-74
2021/10/01 14:25:24;;;;;;;5.13;1.40;;;22.30;8.20;;;;;;4974581;28;20455;-75
2021/10/01 14:27:49;;;;;;;3.97;1.80;;;22.30;8.50;;;;;;4974433;28;20416;-75
2021/10/01 14:30:18;;;;;;;5.50;1.67;;;22.30;8.50;;;;;;4973307;28;20427;-76